createdAt,value
2024-02-26T00:02:26.050Z,228.0
2024-02-26T00:05:26.268Z,219.0
2024-02-26T00:08:26.579Z,223.0
2024-02-26T00:11:25.941Z,218.0
2024-02-26T00:14:25.716Z,223.0
2024-02-26T00:17:26.020Z,209.0
2024-02-26T00:20:28.453Z,213.0
2024-02-26T00:23:26.043Z,209.0
2024-02-26T00:26:25.926Z,216.0
2024-02-26T00:29:25.657Z,212.0
2024-02-26T00:32:26.202Z,217.0
2024-02-26T00:35:27.242Z,210.0
2024-02-26T00:38:25.799Z,210.0
2024-02-26T00:41:25.706Z,217.0
2024-02-26T00:44:25.814Z,218.0
2024-02-26T00:47:25.872Z,208.0
2024-02-26T00:50:26.623Z,216.0
2024-02-26T00:53:26.179Z,209.0
2024-02-26T00:56:25.929Z,204.0
2024-02-26T00:59:25.728Z,199.0
2024-02-26T01:02:26.293Z,207.0
2024-02-26T01:05:26.366Z,199.0
2024-02-26T01:08:27.786Z,200.0
2024-02-26T01:11:26.223Z,202.0
2024-02-26T01:14:26.218Z,204.0
2024-02-26T01:17:26.628Z,192.0
2024-02-26T01:20:26.660Z,196.0
2024-02-26T01:23:25.773Z,204.0
2024-02-26T01:26:25.792Z,203.0
2024-02-26T01:29:25.774Z,208.0
2024-02-26T01:32:26.106Z,209.0
2024-02-26T01:35:27.291Z,210.0
2024-02-26T01:38:25.783Z,208.0
2024-02-26T01:41:25.748Z,208.0
2024-02-26T01:44:25.862Z,211.0
2024-02-26T01:47:26.142Z,203.0
2024-02-26T01:50:27.313Z,198.0
2024-02-26T01:53:25.795Z,201.0
2024-02-26T01:56:26.052Z,200.0
2024-02-26T01:59:25.747Z,209.0
2024-02-26T02:02:26.367Z,207.0
2024-02-26T02:05:26.047Z,202.0
2024-02-26T02:08:26.999Z,197.0
2024-02-26T02:11:25.832Z,212.0
2024-02-26T02:14:25.867Z,215.0
2024-02-26T02:17:25.984Z,209.0
2024-02-26T02:20:26.265Z,214.0
2024-02-26T02:23:26.096Z,216.0
2024-02-26T02:26:25.838Z,219.0
2024-02-26T02:29:25.939Z,207.0
2024-02-26T02:32:25.984Z,206.0
2024-02-26T02:35:27.062Z,207.0
2024-02-26T02:38:25.708Z,211.0
2024-02-26T02:41:25.913Z,216.0
2024-02-26T02:44:25.729Z,212.0
2024-02-26T02:47:25.931Z,222.0
2024-02-26T02:50:26.925Z,221.0
2024-02-26T02:53:25.726Z,224.0
2024-02-26T02:56:25.916Z,219.0
2024-02-26T02:59:25.741Z,217.0
2024-02-26T03:02:26.469Z,219.0
2024-02-26T03:05:26.101Z,213.0
2024-02-26T03:08:26.936Z,214.0
2024-02-26T03:11:25.838Z,205.0
2024-02-26T03:14:25.952Z,203.0
2024-02-26T03:17:26.176Z,214.0
2024-02-26T03:20:27.116Z,212.0
2024-02-26T03:23:25.759Z,208.0
2024-02-26T03:26:25.816Z,205.0
2024-02-26T03:29:25.800Z,200.0
2024-02-26T03:32:26.322Z,204.0
2024-02-26T03:35:27.914Z,201.0
2024-02-26T03:38:25.808Z,194.0
2024-02-26T03:41:25.867Z,207.0
2024-02-26T03:44:25.814Z,197.0
2024-02-26T03:47:26.086Z,204.0
2024-02-26T03:50:27.340Z,216.0
2024-02-26T03:53:29.788Z,201.0
2024-02-26T03:56:25.776Z,204.0
2024-02-26T03:59:26.078Z,210.0
2024-02-26T04:02:26.638Z,207.0
2024-02-26T04:05:26.004Z,205.0
2024-02-26T04:08:26.510Z,204.0
2024-02-26T04:11:28.238Z,212.0
2024-02-26T04:14:25.925Z,198.0
2024-02-26T04:17:26.019Z,192.0
2024-02-26T04:20:26.912Z,195.0
2024-02-26T04:23:25.927Z,205.0
2024-02-26T04:26:26.166Z,206.0
2024-02-26T04:29:25.842Z,203.0
2024-02-26T04:32:26.245Z,208.0
2024-02-26T04:35:26.714Z,210.0
2024-02-26T04:38:25.929Z,210.0
2024-02-26T04:41:28.258Z,204.0
2024-02-26T04:44:25.612Z,215.0
2024-02-26T04:47:25.963Z,211.0
2024-02-26T04:50:27.448Z,216.0
2024-02-26T04:53:25.699Z,206.0
2024-02-26T04:56:25.644Z,224.0
2024-02-26T04:59:25.815Z,214.0
2024-02-26T05:02:27.100Z,209.0
2024-02-26T05:05:30.490Z,214.0
2024-02-26T05:08:26.675Z,213.0
2024-02-26T05:11:25.767Z,204.0
2024-02-26T05:14:26.102Z,208.0
2024-02-26T05:17:26.654Z,213.0
2024-02-26T05:20:26.627Z,214.0
2024-02-26T05:23:25.680Z,213.0
2024-02-26T05:26:26.205Z,215.0
2024-02-26T05:29:26.006Z,215.0
2024-02-26T05:32:26.088Z,215.0
2024-02-26T05:35:29.366Z,225.0
2024-02-26T05:38:25.716Z,224.0
2024-02-26T05:41:29.113Z,220.0
2024-02-26T05:44:25.809Z,204.0
2024-02-26T05:47:25.982Z,219.0
2024-02-26T05:50:27.291Z,208.0
2024-02-26T05:53:27.473Z,204.0
2024-02-26T05:56:25.980Z,198.0
2024-02-26T05:59:26.102Z,190.0
2024-02-26T06:02:26.723Z,190.0
2024-02-26T06:05:26.678Z,197.0
2024-02-26T06:08:26.773Z,193.0
2024-02-26T06:11:25.958Z,192.0
2024-02-26T06:14:25.867Z,189.0
2024-02-26T06:17:25.961Z,193.0
2024-02-26T06:20:27.184Z,201.0
2024-02-26T06:23:25.863Z,197.0
2024-02-26T06:26:25.933Z,200.0
2024-02-26T06:29:25.964Z,191.0
2024-02-26T06:32:26.189Z,188.0
2024-02-26T06:35:27.468Z,190.0
2024-02-26T06:38:25.860Z,217.0
2024-02-26T06:41:26.034Z,203.0
2024-02-26T06:44:26.699Z,196.0
2024-02-26T06:47:25.747Z,198.0
2024-02-26T06:50:30.406Z,214.0
2024-02-26T06:53:25.876Z,212.0
2024-02-26T06:56:25.819Z,206.0
2024-02-26T06:59:26.073Z,214.0
2024-02-26T07:02:26.860Z,210.0
2024-02-26T07:05:26.475Z,207.0
2024-02-26T07:08:26.662Z,207.0
2024-02-26T07:11:27.166Z,220.0
2024-02-26T07:14:27.449Z,218.0
2024-02-26T07:17:25.968Z,223.0
2024-02-26T07:20:28.124Z,233.0
2024-02-26T07:23:25.854Z,244.0
2024-02-26T07:26:25.698Z,237.0
2024-02-26T07:29:25.841Z,237.0
2024-02-26T07:32:26.179Z,227.0
2024-02-26T07:35:26.797Z,249.0
2024-02-26T07:38:41.863Z,238.0
2024-02-26T07:41:36.307Z,241.0
2024-02-26T07:44:26.907Z,245.0
2024-02-26T07:47:26.202Z,248.0
2024-02-26T07:50:28.765Z,250.0
2024-02-26T07:53:26.148Z,242.0
2024-02-26T07:56:28.510Z,237.0
2024-02-26T07:59:29.508Z,231.0
2024-02-26T08:02:30.813Z,234.0
2024-02-26T08:05:26.466Z,249.0
2024-02-26T08:08:31.552Z,228.0
2024-02-26T08:11:25.797Z,240.0
2024-02-26T08:14:25.807Z,238.0
2024-02-26T08:17:26.039Z,241.0
2024-02-26T08:20:26.621Z,250.0
2024-02-26T08:23:26.111Z,249.0
2024-02-26T08:26:25.720Z,257.0
2024-02-26T08:29:26.043Z,249.0
2024-02-26T08:32:26.088Z,244.0
2024-02-26T08:35:27.726Z,242.0
2024-02-26T08:38:25.936Z,242.0
2024-02-26T08:41:28.362Z,237.0
2024-02-26T08:44:25.850Z,236.0
2024-02-26T08:47:26.163Z,242.0
2024-02-26T08:50:27.091Z,235.0
2024-02-26T08:53:31.492Z,241.0
2024-02-26T08:56:25.828Z,256.0
2024-02-26T08:59:26.011Z,232.0
2024-02-26T09:02:26.491Z,241.0
2024-02-26T09:05:30.161Z,241.0
2024-02-26T09:08:26.312Z,231.0
2024-02-26T09:11:28.118Z,223.0
2024-02-26T09:14:28.272Z,227.0
2024-02-26T09:17:25.999Z,221.0
2024-02-26T09:20:27.104Z,228.0
2024-02-26T09:23:25.975Z,216.0
2024-02-26T09:26:25.867Z,229.0
2024-02-26T09:29:26.121Z,213.0
2024-02-26T09:32:26.258Z,228.0
2024-02-26T09:35:27.187Z,216.0
2024-02-26T09:41:29.518Z,223.0
2024-02-26T09:47:26.550Z,211.0
2024-02-26T09:50:26.908Z,212.0
2024-02-26T09:53:25.852Z,220.0
2024-02-26T09:56:25.937Z,226.0
2024-02-26T09:59:30.844Z,230.0
2024-02-26T10:02:26.378Z,229.0
2024-02-26T10:05:26.129Z,223.0
2024-02-26T10:08:26.814Z,221.0
2024-02-26T10:11:26.160Z,213.0
2024-02-26T10:14:27.458Z,223.0
2024-02-26T10:17:26.515Z,221.0
2024-02-26T10:20:41.429Z,225.0
2024-02-26T10:23:26.151Z,215.0
2024-02-26T10:26:25.813Z,233.0
2024-02-26T10:29:28.130Z,244.0
2024-02-26T10:32:28.501Z,236.0
2024-02-26T10:35:31.037Z,234.0
2024-02-26T10:41:25.929Z,228.0
2024-02-26T10:44:26.028Z,231.0
2024-02-26T10:47:29.496Z,231.0
2024-02-26T10:50:28.198Z,240.0
2024-02-26T10:53:25.698Z,239.0
2024-02-26T10:56:29.682Z,327.0
2024-02-26T10:59:26.279Z,242.0
2024-02-26T11:02:26.850Z,236.0
2024-02-26T11:05:26.323Z,231.0
2024-02-26T11:08:28.634Z,227.0
2024-02-26T11:11:26.537Z,238.0
2024-02-26T11:14:27.609Z,233.0
2024-02-26T11:17:25.937Z,225.0
2024-02-26T11:20:27.531Z,240.0
2024-02-26T11:26:26.048Z,237.0
2024-02-26T11:29:26.264Z,234.0
2024-02-26T11:32:26.475Z,231.0
2024-02-26T11:35:27.126Z,243.0
2024-02-26T11:38:29.312Z,232.0
2024-02-26T11:41:26.030Z,234.0
2024-02-26T11:44:27.723Z,235.0
2024-02-26T11:47:25.998Z,242.0
2024-02-26T11:50:29.299Z,233.0
2024-02-26T11:53:25.941Z,235.0
2024-02-26T11:56:27.227Z,237.0
2024-02-26T11:59:25.853Z,238.0
2024-02-26T12:02:26.307Z,231.0
2024-02-26T12:05:26.198Z,238.0
2024-02-26T12:08:26.767Z,227.0
2024-02-26T12:11:25.978Z,229.0
2024-02-26T12:14:26.460Z,230.0
2024-02-26T12:17:26.336Z,240.0
2024-02-26T12:20:31.400Z,223.0
2024-02-26T12:23:25.713Z,233.0
2024-02-26T12:26:27.288Z,229.0
2024-02-26T12:29:26.152Z,237.0
2024-02-26T12:32:26.025Z,230.0
2024-02-26T12:35:26.989Z,224.0
2024-02-26T12:38:25.933Z,216.0
2024-02-26T12:41:25.884Z,226.0
2024-02-26T12:44:26.815Z,238.0
2024-02-26T12:47:26.382Z,238.0
2024-02-26T12:50:27.789Z,237.0
2024-02-26T12:53:25.875Z,232.0
2024-02-26T12:56:26.930Z,236.0
2024-02-26T12:59:25.965Z,230.0
2024-02-26T13:02:26.224Z,227.0
2024-02-26T13:05:26.368Z,230.0
2024-02-26T13:08:27.677Z,221.0
2024-02-26T13:11:26.071Z,238.0
2024-02-26T13:14:26.114Z,236.0
2024-02-26T13:17:25.999Z,234.0
2024-02-26T13:20:30.388Z,234.0
2024-02-26T13:23:25.945Z,239.0
2024-02-26T13:26:26.282Z,263.0
2024-02-26T13:29:25.893Z,237.0
2024-02-26T13:32:27.478Z,225.0
2024-02-26T13:35:27.396Z,230.0
2024-02-26T13:38:26.020Z,221.0
2024-02-26T13:41:26.336Z,239.0
2024-02-26T13:44:26.212Z,231.0
2024-02-26T13:47:26.637Z,218.0
2024-02-26T13:50:27.918Z,224.0
2024-02-26T13:53:26.048Z,227.0
2024-02-26T13:56:25.979Z,221.0
2024-02-26T13:59:25.976Z,224.0
2024-02-26T14:02:26.569Z,226.0
2024-02-26T14:05:26.323Z,231.0
2024-02-26T14:08:27.322Z,230.0
2024-02-26T14:14:29.563Z,234.0
2024-02-26T14:17:28.163Z,224.0
2024-02-26T14:20:27.133Z,228.0
2024-02-26T14:23:25.969Z,233.0
2024-02-26T14:26:26.051Z,237.0
2024-02-26T14:29:33.495Z,242.0
2024-02-26T14:32:26.620Z,238.0
2024-02-26T14:35:33.730Z,307.0
2024-02-26T14:38:25.840Z,242.0
2024-02-26T14:41:25.895Z,232.0
2024-02-26T14:44:26.013Z,228.0
2024-02-26T14:47:27.439Z,220.0
2024-02-26T14:50:26.941Z,218.0
2024-02-26T14:53:26.125Z,225.0
2024-02-26T14:56:28.188Z,228.0
2024-02-26T14:59:25.857Z,223.0
2024-02-26T15:02:26.660Z,215.0
2024-02-26T15:05:26.554Z,220.0
2024-02-26T15:08:27.047Z,220.0
2024-02-26T15:11:26.232Z,231.0
2024-02-26T15:14:28.527Z,232.0
2024-02-26T15:17:26.163Z,236.0
2024-02-26T15:20:27.661Z,229.0
2024-02-26T15:23:25.924Z,226.0
2024-02-26T15:26:36.643Z,228.0
2024-02-26T15:29:26.089Z,223.0
2024-02-26T15:32:26.148Z,238.0
2024-02-26T15:35:27.048Z,239.0
2024-02-26T15:38:25.942Z,236.0
2024-02-26T15:41:26.101Z,238.0
2024-02-26T15:44:25.899Z,239.0
2024-02-26T15:47:25.909Z,233.0
2024-02-26T15:50:27.492Z,242.0
2024-02-26T15:53:26.185Z,246.0
2024-02-26T15:56:27.165Z,253.0
2024-02-26T15:59:26.324Z,235.0
2024-02-26T16:02:37.328Z,288.0
2024-02-26T16:05:26.172Z,239.0
2024-02-26T16:08:26.576Z,229.0
2024-02-26T16:11:26.288Z,224.0
2024-02-26T16:14:26.307Z,239.0
2024-02-26T16:17:26.890Z,252.0
2024-02-26T16:20:27.356Z,237.0
2024-02-26T16:23:25.834Z,229.0
2024-02-26T16:26:26.058Z,221.0
2024-02-26T16:29:25.713Z,213.0
2024-02-26T16:32:26.116Z,213.0
2024-02-26T16:35:26.895Z,212.0
2024-02-26T16:38:27.436Z,219.0
2024-02-26T16:41:25.662Z,221.0
2024-02-26T16:44:27.262Z,222.0
2024-02-26T16:47:26.567Z,227.0
2024-02-26T16:50:30.312Z,222.0
2024-02-26T16:53:25.872Z,222.0
2024-02-26T16:56:27.197Z,211.0
2024-02-26T16:59:26.197Z,218.0
2024-02-26T17:02:27.706Z,221.0
2024-02-26T17:05:26.439Z,215.0
2024-02-26T17:08:29.730Z,228.0
2024-02-26T17:11:25.903Z,227.0
2024-02-26T17:14:25.992Z,218.0
2024-02-26T17:17:26.330Z,230.0
2024-02-26T17:20:26.757Z,228.0
2024-02-26T17:23:25.877Z,223.0
2024-02-26T17:26:25.871Z,227.0
2024-02-26T17:29:26.228Z,231.0
2024-02-26T17:32:29.289Z,233.0
2024-02-26T17:35:27.055Z,217.0
2024-02-26T17:38:25.841Z,225.0
2024-02-26T17:41:28.101Z,229.0
2024-02-26T17:44:25.771Z,232.0
2024-02-26T17:47:25.921Z,227.0
2024-02-26T17:50:27.524Z,291.0
2024-02-26T17:53:26.381Z,244.0
2024-02-26T17:56:25.910Z,232.0
2024-02-26T17:59:27.178Z,228.0
2024-02-26T18:02:26.112Z,231.0
2024-02-26T18:05:26.352Z,231.0
2024-02-26T18:08:26.175Z,221.0
2024-02-26T18:11:25.933Z,234.0
2024-02-26T18:14:26.025Z,225.0
2024-02-26T18:17:28.124Z,230.0
2024-02-26T18:20:27.788Z,235.0
2024-02-26T18:23:25.886Z,234.0
2024-02-26T18:26:27.302Z,223.0
2024-02-26T18:29:30.352Z,220.0
2024-02-26T18:32:26.084Z,228.0
2024-02-26T18:35:27.205Z,224.0
2024-02-26T18:38:25.857Z,229.0
2024-02-26T18:41:26.029Z,226.0
2024-02-26T18:44:25.930Z,230.0
2024-02-26T18:47:26.194Z,224.0
2024-02-26T18:50:29.587Z,215.0
2024-02-26T18:53:26.037Z,223.0
2024-02-26T18:56:31.036Z,216.0
2024-02-26T18:59:26.094Z,201.0
2024-02-26T19:02:26.492Z,213.0
2024-02-26T19:05:26.302Z,217.0
2024-02-26T19:08:25.953Z,211.0
2024-02-26T19:11:26.387Z,202.0
2024-02-26T19:14:29.571Z,209.0
2024-02-26T19:17:26.528Z,203.0
2024-02-26T19:20:26.854Z,191.0
2024-02-26T19:23:28.277Z,205.0
2024-02-26T19:26:25.998Z,289.0
2024-02-26T19:29:25.915Z,224.0
2024-02-26T19:32:25.801Z,215.0
2024-02-26T19:35:26.781Z,212.0
2024-02-26T19:38:26.011Z,212.0
2024-02-26T19:41:25.896Z,216.0
2024-02-26T19:44:25.852Z,203.0
2024-02-26T19:47:25.937Z,209.0
2024-02-26T19:50:26.990Z,216.0
2024-02-26T19:53:26.183Z,210.0
2024-02-26T19:56:25.986Z,221.0
2024-02-26T19:59:26.009Z,232.0
2024-02-26T20:02:26.413Z,211.0
2024-02-26T20:05:27.942Z,213.0
2024-02-26T20:08:26.680Z,212.0
2024-02-26T20:11:26.120Z,216.0
2024-02-26T20:14:28.279Z,218.0
2024-02-26T20:17:26.058Z,223.0
2024-02-26T20:20:27.300Z,218.0
2024-02-26T20:23:28.753Z,215.0
2024-02-26T20:26:25.817Z,210.0
2024-02-26T20:29:25.896Z,217.0
2024-02-26T20:32:26.060Z,216.0
2024-02-26T20:35:28.528Z,219.0
2024-02-26T20:38:25.817Z,218.0
2024-02-26T20:41:26.132Z,220.0
2024-02-26T20:44:26.016Z,224.0
2024-02-26T20:47:25.730Z,219.0
2024-02-26T20:50:27.084Z,224.0
2024-02-26T20:53:29.878Z,221.0
2024-02-26T20:56:25.865Z,224.0
2024-02-26T20:59:25.931Z,229.0
2024-02-26T21:02:27.246Z,225.0
2024-02-26T21:05:29.915Z,222.0
2024-02-26T21:08:37.602Z,230.0
2024-02-26T21:11:26.283Z,223.0
2024-02-26T21:14:26.248Z,224.0
2024-02-26T21:17:25.960Z,228.0
2024-02-26T21:20:30.881Z,228.0
2024-02-26T21:23:25.803Z,223.0
2024-02-26T21:26:29.232Z,227.0
2024-02-26T21:29:25.902Z,230.0
2024-02-26T21:32:27.434Z,225.0
2024-02-26T21:35:26.983Z,223.0
2024-02-26T21:38:32.183Z,230.0
2024-02-26T21:41:25.857Z,225.0
2024-02-26T21:44:25.650Z,211.0
2024-02-26T21:47:25.845Z,225.0
2024-02-26T21:50:29.086Z,219.0
2024-02-26T21:53:25.875Z,218.0
2024-02-26T21:56:26.508Z,216.0
2024-02-26T21:59:25.783Z,216.0
2024-02-26T22:02:26.584Z,207.0
2024-02-26T22:05:26.740Z,213.0
2024-02-26T22:08:27.183Z,221.0
2024-02-26T22:11:26.386Z,218.0
2024-02-26T22:14:26.392Z,213.0
2024-02-26T22:17:26.095Z,201.0
2024-02-26T22:20:28.389Z,214.0
2024-02-26T22:23:29.371Z,212.0
2024-02-26T22:26:25.858Z,206.0
2024-02-26T22:29:27.394Z,201.0
2024-02-26T22:32:26.207Z,205.0
2024-02-26T22:35:27.356Z,201.0
2024-02-26T22:38:26.206Z,205.0
2024-02-26T22:41:25.892Z,208.0
2024-02-26T22:44:25.889Z,217.0
2024-02-26T22:47:25.888Z,210.0
2024-02-26T22:50:27.072Z,213.0
2024-02-26T22:53:25.908Z,213.0
2024-02-26T22:56:25.972Z,218.0
2024-02-26T22:59:25.692Z,218.0
2024-02-26T23:02:27.171Z,212.0
2024-02-26T23:05:26.469Z,213.0
2024-02-26T23:08:29.668Z,201.0
2024-02-26T23:11:25.840Z,203.0
2024-02-26T23:14:25.831Z,208.0
2024-02-26T23:17:25.843Z,206.0
2024-02-26T23:20:26.467Z,202.0
2024-02-26T23:23:27.564Z,208.0
2024-02-26T23:26:25.828Z,208.0
2024-02-26T23:29:26.038Z,207.0
2024-02-26T23:32:26.164Z,211.0
2024-02-26T23:35:27.399Z,210.0
2024-02-26T23:38:25.853Z,209.0
2024-02-26T23:41:26.372Z,208.0
2024-02-26T23:44:26.285Z,207.0
2024-02-26T23:47:25.899Z,207.0
2024-02-26T23:50:26.516Z,218.0
2024-02-26T23:53:25.809Z,208.0
2024-02-26T23:56:26.078Z,212.0
2024-02-26T23:59:25.986Z,211.0
